sensor_id;sensor_type;location;lat;lon;timestamp;temperature;humidity
7360;DHT22;3720;48.274;7.796;2023-02-28T00:00:23;1.60;99.90
7360;DHT22;3720;48.274;7.796;2023-02-28T00:02:55;1.60;99.90
7360;DHT22;3720;48.274;7.796;2023-02-28T00:05:27;1.60;99.90
7360;DHT22;3720;48.274;7.796;2023-02-28T00:08:00;1.60;99.90
7360;DHT22;3720;48.274;7.796;2023-02-28T00:10:32;1.70;99.90
7360;DHT22;3720;48.274;7.796;2023-02-28T00:13:06;1.60;99.90
7360;DHT22;3720;48.274;7.796;2023-02-28T00:15:38;1.60;99.90
7360;DHT22;3720;48.274;7.796;2023-02-28T00:18:10;1.60;99.90
7360;DHT22;3720;48.274;7.796;2023-02-28T00:20:42;1.50;99.90
7360;DHT22;3720;48.274;7.796;2023-02-28T00:23:14;1.50;99.90
7360;DHT22;3720;48.274;7.796;2023-02-28T00:25:46;1.40;99.90
7360;DHT22;3720;48.274;7.796;2023-02-28T00:28:19;2.10;99.90
7360;DHT22;3720;48.274;7.796;2023-02-28T00:30:51;1.50;99.90
7360;DHT22;3720;48.274;7.796;2023-02-28T00:33:23;1.50;99.90
7360;DHT22;3720;48.274;7.796;2023-02-28T00:36:07;1.50;99.90
7360;DHT22;3720;48.274;7.796;2023-02-28T00:38:40;1.40;99.90
7360;DHT22;3720;48.274;7.796;2023-02-28T00:41:13;1.30;99.90
7360;DHT22;3720;48.274;7.796;2023-02-28T00:43:46;1.20;99.90
7360;DHT22;3720;48.274;7.796;2023-02-28T00:46:18;1.10;99.90
7360;DHT22;3720;48.274;7.796;2023-02-28T00:48:50;1.20;99.90
7360;DHT22;3720;48.274;7.796;2023-02-28T00:51:21;1.10;99.90
7360;DHT22;3720;48.274;7.796;2023-02-28T00:53:54;1.10;99.90
7360;DHT22;3720;48.274;7.796;2023-02-28T00:56:25;1.10;99.90
7360;DHT22;3720;48.274;7.796;2023-02-28T00:58:59;1.00;99.90
7360;DHT22;3720;48.274;7.796;2023-02-28T01:01:31;1.00;99.90
7360;DHT22;3720;48.274;7.796;2023-02-28T01:04:03;0.90;99.90
7360;DHT22;3720;48.274;7.796;2023-02-28T01:06:36;0.90;99.90
7360;DHT22;3720;48.274;7.796;2023-02-28T01:09:09;0.90;99.90
7360;DHT22;3720;48.274;7.796;2023-02-28T01:11:41;0.90;99.90
7360;DHT22;3720;48.274;7.796;2023-02-28T01:14:16;0.90;99.90
7360;DHT22;3720;48.274;7.796;2023-02-28T01:16:49;1.00;99.90
7360;DHT22;3720;48.274;7.796;2023-02-28T01:19:22;1.10;99.90
7360;DHT22;3720;48.274;7.796;2023-02-28T01:21:53;1.00;99.90
7360;DHT22;3720;48.274;7.796;2023-02-28T01:24:26;0.90;99.90
7360;DHT22;3720;48.274;7.796;2023-02-28T01:26:58;0.90;99.90
7360;DHT22;3720;48.274;7.796;2023-02-28T01:29:31;0.90;99.90
7360;DHT22;3720;48.274;7.796;2023-02-28T01:32:03;0.90;99.90
7360;DHT22;3720;48.274;7.796;2023-02-28T01:34:35;0.90;99.90
7360;DHT22;3720;48.274;7.796;2023-02-28T01:37:07;0.90;99.90
7360;DHT22;3720;48.274;7.796;2023-02-28T01:39:39;1.00;99.90
7360;DHT22;3720;48.274;7.796;2023-02-28T01:42:12;1.00;99.90
7360;DHT22;3720;48.274;7.796;2023-02-28T01:45:06;0.90;99.90
7360;DHT22;3720;48.274;7.796;2023-02-28T01:47:48;0.90;99.90
7360;DHT22;3720;48.274;7.796;2023-02-28T01:50:24;0.90;99.90
7360;DHT22;3720;48.274;7.796;2023-02-28T01:53:00;0.90;99.90
7360;DHT22;3720;48.274;7.796;2023-02-28T01:55:33;0.90;99.90
7360;DHT22;3720;48.274;7.796;2023-02-28T01:58:07;0.80;99.90
7360;DHT22;3720;48.274;7.796;2023-02-28T02:00:41;0.80;99.90
7360;DHT22;3720;48.274;7.796;2023-02-28T02:03:15;0.80;99.90
7360;DHT22;3720;48.274;7.796;2023-02-28T02:05:51;0.80;99.90
7360;DHT22;3720;48.274;7.796;2023-02-28T02:08:25;0.90;99.90
7360;DHT22;3720;48.274;7.796;2023-02-28T02:11:00;0.80;99.90
7360;DHT22;3720;48.274;7.796;2023-02-28T02:13:57;0.80;99.90
7360;DHT22;3720;48.274;7.796;2023-02-28T02:16:44;0.90;99.90
7360;DHT22;3720;48.274;7.796;2023-02-28T02:19:46;0.80;99.90
7360;DHT22;3720;48.274;7.796;2023-02-28T02:25:34;0.90;99.90
7360;DHT22;3720;48.274;7.796;2023-02-28T02:28:46;0.80;99.90
7360;DHT22;3720;48.274;7.796;2023-02-28T02:31:38;0.80;99.90
7360;DHT22;3720;48.274;7.796;2023-02-28T02:34:44;0.90;99.90
7360;DHT22;3720;48.274;7.796;2023-02-28T02:37:29;0.90;99.90
7360;DHT22;3720;48.274;7.796;2023-02-28T02:40:09;0.90;99.90
7360;DHT22;3720;48.274;7.796;2023-02-28T02:42:47;0.90;99.90
7360;DHT22;3720;48.274;7.796;2023-02-28T02:45:24;0.80;99.90
7360;DHT22;3720;48.274;7.796;2023-02-28T02:47:59;0.80;99.90
7360;DHT22;3720;48.274;7.796;2023-02-28T02:50:37;0.90;99.90
7360;DHT22;3720;48.274;7.796;2023-02-28T02:53:11;0.90;99.90
7360;DHT22;3720;48.274;7.796;2023-02-28T02:55:48;0.90;99.90
7360;DHT22;3720;48.274;7.796;2023-02-28T02:58:26;0.90;99.90
7360;DHT22;3720;48.274;7.796;2023-02-28T03:01:02;0.90;99.90
7360;DHT22;3720;48.274;7.796;2023-02-28T03:03:35;0.90;99.90
7360;DHT22;3720;48.274;7.796;2023-02-28T03:06:09;0.90;99.90
7360;DHT22;3720;48.274;7.796;2023-02-28T03:08:40;0.90;99.90
7360;DHT22;3720;48.274;7.796;2023-02-28T03:11:14;0.90;99.90
7360;DHT22;3720;48.274;7.796;2023-02-28T03:14:05;0.90;99.90
7360;DHT22;3720;48.274;7.796;2023-02-28T03:16:59;0.90;99.90
7360;DHT22;3720;48.274;7.796;2023-02-28T03:19:45;0.90;99.90
7360;DHT22;3720;48.274;7.796;2023-02-28T03:22:33;0.90;99.90
7360;DHT22;3720;48.274;7.796;2023-02-28T03:25:15;0.90;99.90
7360;DHT22;3720;48.274;7.796;2023-02-28T03:27:54;0.90;99.90
7360;DHT22;3720;48.274;7.796;2023-02-28T03:30:35;0.90;99.90
7360;DHT22;3720;48.274;7.796;2023-02-28T03:33:10;0.90;99.90
7360;DHT22;3720;48.274;7.796;2023-02-28T03:35:47;0.90;99.90
7360;DHT22;3720;48.274;7.796;2023-02-28T03:38:24;0.90;99.90
7360;DHT22;3720;48.274;7.796;2023-02-28T03:41:04;0.90;99.90
7360;DHT22;3720;48.274;7.796;2023-02-28T03:43:41;0.90;99.90
7360;DHT22;3720;48.274;7.796;2023-02-28T03:46:16;0.90;99.90
7360;DHT22;3720;48.274;7.796;2023-02-28T03:48:55;0.80;99.90
7360;DHT22;3720;48.274;7.796;2023-02-28T03:51:30;0.80;99.90
7360;DHT22;3720;48.274;7.796;2023-02-28T03:54:08;0.80;99.90
7360;DHT22;3720;48.274;7.796;2023-02-28T03:56:45;0.80;99.90
7360;DHT22;3720;48.274;7.796;2023-02-28T03:59:23;0.90;99.90
7360;DHT22;3720;48.274;7.796;2023-02-28T04:01:57;0.80;99.90
7360;DHT22;3720;48.274;7.796;2023-02-28T04:04:30;0.80;99.90
7360;DHT22;3720;48.274;7.796;2023-02-28T04:07:04;0.90;99.90
7360;DHT22;3720;48.274;7.796;2023-02-28T04:09:38;0.90;99.90
7360;DHT22;3720;48.274;7.796;2023-02-28T04:12:10;0.80;99.90
7360;DHT22;3720;48.274;7.796;2023-02-28T04:14:42;0.90;99.90
7360;DHT22;3720;48.274;7.796;2023-02-28T04:17:14;0.80;99.90
7360;DHT22;3720;48.274;7.796;2023-02-28T04:19:46;0.80;99.90
7360;DHT22;3720;48.274;7.796;2023-02-28T04:22:18;0.80;99.90
7360;DHT22;3720;48.274;7.796;2023-02-28T04:24:51;0.80;99.90
7360;DHT22;3720;48.274;7.796;2023-02-28T04:27:24;0.70;99.90
7360;DHT22;3720;48.274;7.796;2023-02-28T04:29:56;0.70;99.90
7360;DHT22;3720;48.274;7.796;2023-02-28T04:32:28;0.70;99.90
7360;DHT22;3720;48.274;7.796;2023-02-28T04:35:00;0.60;99.90
7360;DHT22;3720;48.274;7.796;2023-02-28T04:37:33;0.70;99.90
7360;DHT22;3720;48.274;7.796;2023-02-28T04:40:09;0.70;99.90
7360;DHT22;3720;48.274;7.796;2023-02-28T04:42:41;0.60;99.90
7360;DHT22;3720;48.274;7.796;2023-02-28T04:45:12;0.60;99.90
7360;DHT22;3720;48.274;7.796;2023-02-28T04:47:44;0.70;99.90
7360;DHT22;3720;48.274;7.796;2023-02-28T04:50:17;0.70;99.90
7360;DHT22;3720;48.274;7.796;2023-02-28T04:52:49;0.70;99.90
7360;DHT22;3720;48.274;7.796;2023-02-28T04:55:22;0.70;99.90
7360;DHT22;3720;48.274;7.796;2023-02-28T04:57:54;0.70;99.90
7360;DHT22;3720;48.274;7.796;2023-02-28T05:00:26;0.60;99.90
7360;DHT22;3720;48.274;7.796;2023-02-28T05:02:58;0.60;99.90
7360;DHT22;3720;48.274;7.796;2023-02-28T05:05:30;0.60;99.90
7360;DHT22;3720;48.274;7.796;2023-02-28T05:08:02;0.60;99.90
7360;DHT22;3720;48.274;7.796;2023-02-28T05:10:37;0.60;99.90
7360;DHT22;3720;48.274;7.796;2023-02-28T05:13:10;0.60;99.90
7360;DHT22;3720;48.274;7.796;2023-02-28T05:15:43;0.60;99.90
7360;DHT22;3720;48.274;7.796;2023-02-28T05:18:15;0.50;99.90
7360;DHT22;3720;48.274;7.796;2023-02-28T05:20:46;0.60;99.90
7360;DHT22;3720;48.274;7.796;2023-02-28T05:23:19;0.60;99.90
7360;DHT22;3720;48.274;7.796;2023-02-28T05:25:55;0.50;99.90
7360;DHT22;3720;48.274;7.796;2023-02-28T05:28:26;0.50;99.90
7360;DHT22;3720;48.274;7.796;2023-02-28T05:30:58;0.40;99.90
7360;DHT22;3720;48.274;7.796;2023-02-28T05:33:30;0.50;99.90
7360;DHT22;3720;48.274;7.796;2023-02-28T05:36:02;0.40;99.90
7360;DHT22;3720;48.274;7.796;2023-02-28T05:38:34;0.40;99.90
7360;DHT22;3720;48.274;7.796;2023-02-28T05:41:09;0.40;99.90
7360;DHT22;3720;48.274;7.796;2023-02-28T05:43:41;0.50;99.90
7360;DHT22;3720;48.274;7.796;2023-02-28T05:46:13;0.50;99.90
7360;DHT22;3720;48.274;7.796;2023-02-28T05:48:47;0.40;99.90
7360;DHT22;3720;48.274;7.796;2023-02-28T05:51:19;0.40;99.90
7360;DHT22;3720;48.274;7.796;2023-02-28T05:53:51;0.50;99.90
7360;DHT22;3720;48.274;7.796;2023-02-28T05:56:24;0.50;99.90
7360;DHT22;3720;48.274;7.796;2023-02-28T05:58:56;0.50;99.90
7360;DHT22;3720;48.274;7.796;2023-02-28T06:01:33;0.50;99.90
7360;DHT22;3720;48.274;7.796;2023-02-28T06:04:07;0.40;99.90
7360;DHT22;3720;48.274;7.796;2023-02-28T06:06:39;0.40;99.90
7360;DHT22;3720;48.274;7.796;2023-02-28T06:09:11;0.30;99.90
7360;DHT22;3720;48.274;7.796;2023-02-28T06:11:45;0.40;99.90
7360;DHT22;3720;48.274;7.796;2023-02-28T06:14:19;0.40;99.90
7360;DHT22;3720;48.274;7.796;2023-02-28T06:16:51;0.30;99.90
7360;DHT22;3720;48.274;7.796;2023-02-28T06:19:23;0.30;99.90
7360;DHT22;3720;48.274;7.796;2023-02-28T06:21:56;0.30;99.90
7360;DHT22;3720;48.274;7.796;2023-02-28T06:24:30;0.40;99.90
7360;DHT22;3720;48.274;7.796;2023-02-28T06:27:04;0.40;99.90
7360;DHT22;3720;48.274;7.796;2023-02-28T06:29:36;0.40;99.90
7360;DHT22;3720;48.274;7.796;2023-02-28T06:32:10;0.30;99.90
7360;DHT22;3720;48.274;7.796;2023-02-28T06:34:41;0.30;99.90
7360;DHT22;3720;48.274;7.796;2023-02-28T06:37:13;0.30;99.90
7360;DHT22;3720;48.274;7.796;2023-02-28T06:39:45;0.40;99.90
7360;DHT22;3720;48.274;7.796;2023-02-28T06:42:18;0.40;99.90
7360;DHT22;3720;48.274;7.796;2023-02-28T06:44:50;0.40;99.90
7360;DHT22;3720;48.274;7.796;2023-02-28T06:47:23;0.30;99.90
7360;DHT22;3720;48.274;7.796;2023-02-28T06:49:55;0.30;99.90
7360;DHT22;3720;48.274;7.796;2023-02-28T06:52:27;0.30;99.90
7360;DHT22;3720;48.274;7.796;2023-02-28T06:54:59;0.30;99.90
7360;DHT22;3720;48.274;7.796;2023-02-28T06:57:33;0.30;99.90
7360;DHT22;3720;48.274;7.796;2023-02-28T07:00:08;0.30;99.90
7360;DHT22;3720;48.274;7.796;2023-02-28T07:02:40;0.30;99.90
7360;DHT22;3720;48.274;7.796;2023-02-28T07:05:12;0.40;99.90
7360;DHT22;3720;48.274;7.796;2023-02-28T07:07:45;0.40;99.90
7360;DHT22;3720;48.274;7.796;2023-02-28T07:10:17;0.40;99.90
7360;DHT22;3720;48.274;7.796;2023-02-28T07:12:51;0.40;99.90
7360;DHT22;3720;48.274;7.796;2023-02-28T07:15:23;0.40;99.90
7360;DHT22;3720;48.274;7.796;2023-02-28T07:17:55;0.40;99.90
7360;DHT22;3720;48.274;7.796;2023-02-28T07:20:27;0.50;99.90
7360;DHT22;3720;48.274;7.796;2023-02-28T07:22:59;0.40;99.90
7360;DHT22;3720;48.274;7.796;2023-02-28T07:25:31;0.50;99.90
7360;DHT22;3720;48.274;7.796;2023-02-28T07:28:05;0.50;99.90
7360;DHT22;3720;48.274;7.796;2023-02-28T07:30:37;0.60;99.90
7360;DHT22;3720;48.274;7.796;2023-02-28T07:33:10;0.60;99.90
7360;DHT22;3720;48.274;7.796;2023-02-28T07:35:42;0.60;99.90
7360;DHT22;3720;48.274;7.796;2023-02-28T07:38:14;0.70;99.90
7360;DHT22;3720;48.274;7.796;2023-02-28T07:40:46;0.80;99.90
7360;DHT22;3720;48.274;7.796;2023-02-28T07:43:19;0.90;99.90
7360;DHT22;3720;48.274;7.796;2023-02-28T07:45:51;1.00;99.90
7360;DHT22;3720;48.274;7.796;2023-02-28T07:48:23;1.00;99.90
7360;DHT22;3720;48.274;7.796;2023-02-28T07:50:55;1.10;99.90
7360;DHT22;3720;48.274;7.796;2023-02-28T07:53:28;1.20;99.90
7360;DHT22;3720;48.274;7.796;2023-02-28T07:56:01;1.30;99.90
7360;DHT22;3720;48.274;7.796;2023-02-28T07:58:35;1.30;99.90
7360;DHT22;3720;48.274;7.796;2023-02-28T08:01:09;1.40;99.90
7360;DHT22;3720;48.274;7.796;2023-02-28T08:03:41;1.50;99.90
7360;DHT22;3720;48.274;7.796;2023-02-28T08:06:17;1.50;99.90
7360;DHT22;3720;48.274;7.796;2023-02-28T08:08:49;1.60;99.90
7360;DHT22;3720;48.274;7.796;2023-02-28T08:11:22;1.60;99.90
7360;DHT22;3720;48.274;7.796;2023-02-28T08:13:56;1.60;99.90
7360;DHT22;3720;48.274;7.796;2023-02-28T08:16:28;1.70;99.90
7360;DHT22;3720;48.274;7.796;2023-02-28T08:19:00;1.70;99.90
7360;DHT22;3720;48.274;7.796;2023-02-28T08:21:32;1.80;99.90
7360;DHT22;3720;48.274;7.796;2023-02-28T08:24:05;1.80;99.90
7360;DHT22;3720;48.274;7.796;2023-02-28T08:26:37;2.00;99.90
7360;DHT22;3720;48.274;7.796;2023-02-28T08:29:11;2.00;99.90
7360;DHT22;3720;48.274;7.796;2023-02-28T08:31:43;2.10;99.90
7360;DHT22;3720;48.274;7.796;2023-02-28T08:34:16;2.20;99.90
7360;DHT22;3720;48.274;7.796;2023-02-28T08:36:48;2.20;99.90
7360;DHT22;3720;48.274;7.796;2023-02-28T08:39:20;2.20;99.90
7360;DHT22;3720;48.274;7.796;2023-02-28T08:41:52;2.20;99.90
7360;DHT22;3720;48.274;7.796;2023-02-28T08:44:25;2.20;99.90
7360;DHT22;3720;48.274;7.796;2023-02-28T08:46:58;2.20;99.90
7360;DHT22;3720;48.274;7.796;2023-02-28T08:49:30;2.20;99.90
7360;DHT22;3720;48.274;7.796;2023-02-28T08:52:02;2.20;99.90
7360;DHT22;3720;48.274;7.796;2023-02-28T08:54:35;2.30;99.90
7360;DHT22;3720;48.274;7.796;2023-02-28T08:57:07;2.30;99.90
7360;DHT22;3720;48.274;7.796;2023-02-28T08:59:41;2.30;99.90
7360;DHT22;3720;48.274;7.796;2023-02-28T09:02:13;2.30;99.90
7360;DHT22;3720;48.274;7.796;2023-02-28T09:04:46;2.30;99.90
7360;DHT22;3720;48.274;7.796;2023-02-28T09:07:18;2.40;99.90
7360;DHT22;3720;48.274;7.796;2023-02-28T09:09:50;2.30;99.90
7360;DHT22;3720;48.274;7.796;2023-02-28T09:12:26;2.30;99.90
7360;DHT22;3720;48.274;7.796;2023-02-28T09:15:00;2.30;99.90
7360;DHT22;3720;48.274;7.796;2023-02-28T09:17:31;2.40;99.90
7360;DHT22;3720;48.274;7.796;2023-02-28T09:20:04;2.40;99.90
7360;DHT22;3720;48.274;7.796;2023-02-28T09:22:36;2.40;99.90
7360;DHT22;3720;48.274;7.796;2023-02-28T09:25:08;2.40;99.90
7360;DHT22;3720;48.274;7.796;2023-02-28T09:27:40;2.50;99.90
7360;DHT22;3720;48.274;7.796;2023-02-28T09:30:15;2.60;99.90
7360;DHT22;3720;48.274;7.796;2023-02-28T09:32:47;2.60;99.90
7360;DHT22;3720;48.274;7.796;2023-02-28T09:35:24;2.60;99.90
7360;DHT22;3720;48.274;7.796;2023-02-28T09:37:57;2.60;99.90
7360;DHT22;3720;48.274;7.796;2023-02-28T09:40:29;2.70;99.90
7360;DHT22;3720;48.274;7.796;2023-02-28T09:43:01;2.80;99.90
7360;DHT22;3720;48.274;7.796;2023-02-28T09:45:39;2.80;99.90
7360;DHT22;3720;48.274;7.796;2023-02-28T09:48:16;2.80;99.90
7360;DHT22;3720;48.274;7.796;2023-02-28T09:50:50;2.80;99.90
7360;DHT22;3720;48.274;7.796;2023-02-28T09:53:27;2.80;99.90
7360;DHT22;3720;48.274;7.796;2023-02-28T09:56:07;2.80;99.90
7360;DHT22;3720;48.274;7.796;2023-02-28T09:58:44;2.90;99.90
7360;DHT22;3720;48.274;7.796;2023-02-28T10:01:24;2.90;99.90
7360;DHT22;3720;48.274;7.796;2023-02-28T10:04:00;2.90;99.90
7360;DHT22;3720;48.274;7.796;2023-02-28T10:06:39;2.90;99.90
7360;DHT22;3720;48.274;7.796;2023-02-28T10:09:19;2.90;99.90
7360;DHT22;3720;48.274;7.796;2023-02-28T10:11:57;3.00;99.90
7360;DHT22;3720;48.274;7.796;2023-02-28T10:14:33;3.00;99.90
7360;DHT22;3720;48.274;7.796;2023-02-28T10:17:11;3.00;99.90
7360;DHT22;3720;48.274;7.796;2023-02-28T10:19:49;3.00;99.90
7360;DHT22;3720;48.274;7.796;2023-02-28T10:22:25;3.00;99.90
7360;DHT22;3720;48.274;7.796;2023-02-28T10:24:59;3.00;99.90
7360;DHT22;3720;48.274;7.796;2023-02-28T10:27:33;3.00;99.90
7360;DHT22;3720;48.274;7.796;2023-02-28T10:30:09;3.10;99.90
7360;DHT22;3720;48.274;7.796;2023-02-28T10:32:49;3.10;99.90
7360;DHT22;3720;48.274;7.796;2023-02-28T10:35:25;3.10;99.90
7360;DHT22;3720;48.274;7.796;2023-02-28T10:37:59;3.10;99.90
7360;DHT22;3720;48.274;7.796;2023-02-28T10:40:34;3.10;99.90
7360;DHT22;3720;48.274;7.796;2023-02-28T10:43:19;3.10;99.90
7360;DHT22;3720;48.274;7.796;2023-02-28T10:45:58;3.20;99.90
7360;DHT22;3720;48.274;7.796;2023-02-28T10:48:36;3.30;99.90
7360;DHT22;3720;48.274;7.796;2023-02-28T10:51:11;3.30;99.90
7360;DHT22;3720;48.274;7.796;2023-02-28T10:53:48;3.30;99.90
7360;DHT22;3720;48.274;7.796;2023-02-28T10:56:22;3.40;99.90
7360;DHT22;3720;48.274;7.796;2023-02-28T10:58:56;3.40;99.90
7360;DHT22;3720;48.274;7.796;2023-02-28T11:01:37;3.40;99.90
7360;DHT22;3720;48.274;7.796;2023-02-28T11:04:31;3.40;99.90
7360;DHT22;3720;48.274;7.796;2023-02-28T11:07:17;3.50;99.90
7360;DHT22;3720;48.274;7.796;2023-02-28T11:09:50;3.60;99.90
7360;DHT22;3720;48.274;7.796;2023-02-28T11:12:26;3.60;99.90
7360;DHT22;3720;48.274;7.796;2023-02-28T11:15:00;3.60;99.90
7360;DHT22;3720;48.274;7.796;2023-02-28T11:17:34;3.60;99.90
7360;DHT22;3720;48.274;7.796;2023-02-28T11:20:20;3.70;99.90
7360;DHT22;3720;48.274;7.796;2023-02-28T11:22:54;3.70;99.90
7360;DHT22;3720;48.274;7.796;2023-02-28T11:25:30;3.60;99.90
7360;DHT22;3720;48.274;7.796;2023-02-28T11:28:03;3.70;99.90
7360;DHT22;3720;48.274;7.796;2023-02-28T11:30:38;3.80;99.90
7360;DHT22;3720;48.274;7.796;2023-02-28T11:33:27;3.80;99.90
7360;DHT22;3720;48.274;7.796;2023-02-28T11:36:04;3.80;99.90
7360;DHT22;3720;48.274;7.796;2023-02-28T11:38:40;3.80;99.90
7360;DHT22;3720;48.274;7.796;2023-02-28T11:41:31;3.80;99.90
7360;DHT22;3720;48.274;7.796;2023-02-28T11:44:22;4.00;99.90
7360;DHT22;3720;48.274;7.796;2023-02-28T11:46:58;3.80;99.90
7360;DHT22;3720;48.274;7.796;2023-02-28T11:49:35;3.90;99.90
7360;DHT22;3720;48.274;7.796;2023-02-28T11:52:20;3.90;99.90
7360;DHT22;3720;48.274;7.796;2023-02-28T11:55:01;3.90;99.90
7360;DHT22;3720;48.274;7.796;2023-02-28T11:57:46;4.00;99.90
7360;DHT22;3720;48.274;7.796;2023-02-28T12:00:36;4.00;99.90
7360;DHT22;3720;48.274;7.796;2023-02-28T12:03:22;4.10;99.90
7360;DHT22;3720;48.274;7.796;2023-02-28T12:06:05;4.10;99.90
7360;DHT22;3720;48.274;7.796;2023-02-28T12:08:51;4.20;99.90
7360;DHT22;3720;48.274;7.796;2023-02-28T12:11:33;4.20;99.90
7360;DHT22;3720;48.274;7.796;2023-02-28T12:17:21;4.30;99.90
7360;DHT22;3720;48.274;7.796;2023-02-28T12:20:00;4.40;99.90
7360;DHT22;3720;48.274;7.796;2023-02-28T12:22:37;4.50;99.90
7360;DHT22;3720;48.274;7.796;2023-02-28T12:25:47;4.60;99.90
7360;DHT22;3720;48.274;7.796;2023-02-28T12:28:24;4.60;99.90
7360;DHT22;3720;48.274;7.796;2023-02-28T12:30:58;4.60;99.90
7360;DHT22;3720;48.274;7.796;2023-02-28T12:33:35;4.70;99.90
7360;DHT22;3720;48.274;7.796;2023-02-28T12:36:11;4.60;99.90
7360;DHT22;3720;48.274;7.796;2023-02-28T12:38:48;4.60;99.90
7360;DHT22;3720;48.274;7.796;2023-02-28T12:41:40;4.60;99.90
7360;DHT22;3720;48.274;7.796;2023-02-28T12:44:17;4.80;99.90
7360;DHT22;3720;48.274;7.796;2023-02-28T12:46:53;4.80;99.90
7360;DHT22;3720;48.274;7.796;2023-02-28T12:49:30;4.80;99.90
7360;DHT22;3720;48.274;7.796;2023-02-28T12:52:02;4.80;99.90
7360;DHT22;3720;48.274;7.796;2023-02-28T12:54:40;4.90;99.90
7360;DHT22;3720;48.274;7.796;2023-02-28T12:57:22;4.80;99.90
7360;DHT22;3720;48.274;7.796;2023-02-28T12:59:59;4.70;99.90
7360;DHT22;3720;48.274;7.796;2023-02-28T13:02:55;4.70;99.90
7360;DHT22;3720;48.274;7.796;2023-02-28T13:05:59;4.80;99.90
7360;DHT22;3720;48.274;7.796;2023-02-28T13:08:53;4.90;99.90
7360;DHT22;3720;48.274;7.796;2023-02-28T13:11:32;5.00;99.90
7360;DHT22;3720;48.274;7.796;2023-02-28T13:14:20;5.10;99.90
7360;DHT22;3720;48.274;7.796;2023-02-28T13:16:56;5.10;99.90
7360;DHT22;3720;48.274;7.796;2023-02-28T13:19:30;5.20;99.90
7360;DHT22;3720;48.274;7.796;2023-02-28T13:22:03;5.10;99.90
7360;DHT22;3720;48.274;7.796;2023-02-28T13:24:39;5.10;99.90
7360;DHT22;3720;48.274;7.796;2023-02-28T13:27:31;5.10;99.90
7360;DHT22;3720;48.274;7.796;2023-02-28T13:33:24;5.20;99.90
7360;DHT22;3720;48.274;7.796;2023-02-28T13:36:25;5.30;99.90
7360;DHT22;3720;48.274;7.796;2023-02-28T13:39:00;5.30;99.90
7360;DHT22;3720;48.274;7.796;2023-02-28T13:41:55;5.40;99.90
7360;DHT22;3720;48.274;7.796;2023-02-28T13:44:26;5.40;99.90
7360;DHT22;3720;48.274;7.796;2023-02-28T13:47:28;5.50;99.90
7360;DHT22;3720;48.274;7.796;2023-02-28T13:50:27;5.60;99.90
7360;DHT22;3720;48.274;7.796;2023-02-28T13:53:34;6.00;99.90
7360;DHT22;3720;48.274;7.796;2023-02-28T13:56:21;6.50;99.90
7360;DHT22;3720;48.274;7.796;2023-02-28T13:59:01;6.70;99.90
7360;DHT22;3720;48.274;7.796;2023-02-28T14:01:49;6.90;99.90
7360;DHT22;3720;48.274;7.796;2023-02-28T14:07:32;6.90;99.90
7360;DHT22;3720;48.274;7.796;2023-02-28T14:10:06;6.90;99.90
7360;DHT22;3720;48.274;7.796;2023-02-28T14:12:59;6.80;99.90
7360;DHT22;3720;48.274;7.796;2023-02-28T14:15:39;6.80;99.90
7360;DHT22;3720;48.274;7.796;2023-02-28T14:18:20;6.70;99.90
7360;DHT22;3720;48.274;7.796;2023-02-28T14:20:57;6.60;99.90
7360;DHT22;3720;48.274;7.796;2023-02-28T14:23:36;6.70;99.90
7360;DHT22;3720;48.274;7.796;2023-02-28T14:26:28;7.10;99.90
7360;DHT22;3720;48.274;7.796;2023-02-28T14:32:22;7.90;99.90
7360;DHT22;3720;48.274;7.796;2023-02-28T14:35:03;8.30;99.90
7360;DHT22;3720;48.274;7.796;2023-02-28T14:37:39;8.60;99.90
7360;DHT22;3720;48.274;7.796;2023-02-28T14:40:17;9.00;99.90
7360;DHT22;3720;48.274;7.796;2023-02-28T14:42:55;9.10;99.90
7360;DHT22;3720;48.274;7.796;2023-02-28T14:45:29;9.20;99.90
7360;DHT22;3720;48.274;7.796;2023-02-28T14:48:04;9.10;99.90
7360;DHT22;3720;48.274;7.796;2023-02-28T14:50:48;9.10;99.90
7360;DHT22;3720;48.274;7.796;2023-02-28T14:53:23;9.10;99.90
7360;DHT22;3720;48.274;7.796;2023-02-28T14:55:58;8.80;99.90
7360;DHT22;3720;48.274;7.796;2023-02-28T14:58:32;8.80;99.90
7360;DHT22;3720;48.274;7.796;2023-02-28T15:01:04;8.60;99.90
7360;DHT22;3720;48.274;7.796;2023-02-28T15:03:39;8.60;99.90
7360;DHT22;3720;48.274;7.796;2023-02-28T15:06:14;8.60;99.90
7360;DHT22;3720;48.274;7.796;2023-02-28T15:08:47;8.70;99.90
7360;DHT22;3720;48.274;7.796;2023-02-28T15:11:21;8.60;99.90
7360;DHT22;3720;48.274;7.796;2023-02-28T15:13:54;8.70;99.90
7360;DHT22;3720;48.274;7.796;2023-02-28T15:16:30;8.90;99.90
7360;DHT22;3720;48.274;7.796;2023-02-28T15:19:05;9.10;99.90
7360;DHT22;3720;48.274;7.796;2023-02-28T15:21:41;9.30;99.90
7360;DHT22;3720;48.274;7.796;2023-02-28T15:24:17;9.50;99.90
7360;DHT22;3720;48.274;7.796;2023-02-28T15:26:57;9.70;99.90
7360;DHT22;3720;48.274;7.796;2023-02-28T15:29:34;9.90;99.90
7360;DHT22;3720;48.274;7.796;2023-02-28T15:32:24;10.10;99.90
7360;DHT22;3720;48.274;7.796;2023-02-28T15:34:57;10.30;99.90
7360;DHT22;3720;48.274;7.796;2023-02-28T15:37:38;10.50;99.90
7360;DHT22;3720;48.274;7.796;2023-02-28T15:40:14;10.50;99.90
7360;DHT22;3720;48.274;7.796;2023-02-28T15:43:04;10.40;99.90
7360;DHT22;3720;48.274;7.796;2023-02-28T15:45:38;10.30;99.90
7360;DHT22;3720;48.274;7.796;2023-02-28T15:48:20;10.30;99.90
7360;DHT22;3720;48.274;7.796;2023-02-28T15:50:55;10.30;99.90
7360;DHT22;3720;48.274;7.796;2023-02-28T15:53:31;10.20;99.90
7360;DHT22;3720;48.274;7.796;2023-02-28T15:56:06;10.10;99.90
7360;DHT22;3720;48.274;7.796;2023-02-28T15:58:45;10.00;99.90
7360;DHT22;3720;48.274;7.796;2023-02-28T16:01:21;9.90;99.90
7360;DHT22;3720;48.274;7.796;2023-02-28T16:03:57;9.90;99.90
7360;DHT22;3720;48.274;7.796;2023-02-28T16:06:40;9.90;99.90
7360;DHT22;3720;48.274;7.796;2023-02-28T16:09:15;9.90;99.90
7360;DHT22;3720;48.274;7.796;2023-02-28T16:11:49;9.90;99.90
7360;DHT22;3720;48.274;7.796;2023-02-28T16:14:24;9.90;99.90
7360;DHT22;3720;48.274;7.796;2023-02-28T16:17:03;9.80;99.90
7360;DHT22;3720;48.274;7.796;2023-02-28T16:19:35;9.70;99.90
7360;DHT22;3720;48.274;7.796;2023-02-28T16:22:08;9.70;99.90
7360;DHT22;3720;48.274;7.796;2023-02-28T16:24:40;9.60;99.90
7360;DHT22;3720;48.274;7.796;2023-02-28T16:27:17;9.50;99.90
7360;DHT22;3720;48.274;7.796;2023-02-28T16:29:51;9.50;99.90
7360;DHT22;3720;48.274;7.796;2023-02-28T16:32:24;9.40;99.90
7360;DHT22;3720;48.274;7.796;2023-02-28T16:34:56;9.20;99.90
7360;DHT22;3720;48.274;7.796;2023-02-28T16:37:28;9.20;99.90
7360;DHT22;3720;48.274;7.796;2023-02-28T16:40:00;9.00;99.90
7360;DHT22;3720;48.274;7.796;2023-02-28T16:42:33;8.80;99.90
7360;DHT22;3720;48.274;7.796;2023-02-28T16:45:15;8.70;99.90
7360;DHT22;3720;48.274;7.796;2023-02-28T16:47:48;8.60;99.90
7360;DHT22;3720;48.274;7.796;2023-02-28T16:50:22;8.40;99.90
7360;DHT22;3720;48.274;7.796;2023-02-28T16:52:55;8.30;99.90
7360;DHT22;3720;48.274;7.796;2023-02-28T16:55:28;8.10;99.90
7360;DHT22;3720;48.274;7.796;2023-02-28T16:58:01;7.90;99.90
7360;DHT22;3720;48.274;7.796;2023-02-28T17:00:35;7.80;99.90
7360;DHT22;3720;48.274;7.796;2023-02-28T17:03:11;7.60;99.90
7360;DHT22;3720;48.274;7.796;2023-02-28T17:05:49;7.40;99.90
7360;DHT22;3720;48.274;7.796;2023-02-28T17:08:20;7.30;99.90
7360;DHT22;3720;48.274;7.796;2023-02-28T17:10:52;7.10;99.90
7360;DHT22;3720;48.274;7.796;2023-02-28T17:13:24;6.90;99.90
7360;DHT22;3720;48.274;7.796;2023-02-28T17:15:58;6.70;99.90
7360;DHT22;3720;48.274;7.796;2023-02-28T17:18:30;6.60;99.90
7360;DHT22;3720;48.274;7.796;2023-02-28T17:21:08;6.50;99.90
7360;DHT22;3720;48.274;7.796;2023-02-28T17:23:41;6.30;99.90
7360;DHT22;3720;48.274;7.796;2023-02-28T17:26:15;6.20;99.90
7360;DHT22;3720;48.274;7.796;2023-02-28T17:28:48;6.10;99.90
7360;DHT22;3720;48.274;7.796;2023-02-28T17:31:22;5.90;99.90